Readsville, Missouri
Current Conditions -  °F | °C
As of 8:53 AM on Friday 31 Oct 2014 (Local Time) from KJEF Reporting Station
Clear Clear  
Wind Chill: 29°   Ceiling: Unl
Heat Index: 40°   Visibility: 10mi
Dew Point: 25°   Wind: 24mph
Humidity: 55%   Direction: 350°N
Pressure: 30.35"   Gusts: 36mph
Location:  38.7662°N, 91.6923°W
Report Text: KJEF 311353Z 35021G31KT 10SM CLR 04/M04 A3035 RMK AO2 PK WND 35031/1350 SLP270 T00441039
Loading
Personal Weather Stations






























Interactive Weather Map
Tropical Storm Tracking
New forecast layout! Learn more

10-Day Weather Forecast

Advertisements
Track Severe Weather on mobile